Time;durP1;ratioP1;P1;durP2;ratioP2;P2;SDS_P1;SDS_P2;PMS_P1;PMS_P2;Temp;Humidity;BMP_temperature;BMP_pressure;BME280_temperature;BME280_humidity;BME280_pressure;Samples;Min_cycle;Max_cycle;Signal;HPM_P1;HPM_P2
2023/02/26 00:00:33;;;;;;;3.07;2.47;;;;;20.40;100512.00;;;;2064568;28;20265;-90
2023/02/26 00:01:34;;;;;;;4.97;2.27;;;;;20.40;100516.00;;;;2064531;28;20241;-89
2023/02/26 00:02:35;;;;;;;5.50;2.60;;;;;20.40;100516.00;;;;2064648;28;20215;-89
2023/02/26 00:03:35;;;;;;;2.90;2.58;;;;;20.40;100518.00;;;;2064622;28;20222;-89
2023/02/26 00:04:36;;;;;;;3.63;2.20;;;;;20.40;100518.00;;;;2064415;28;20229;-90
2023/02/26 00:05:36;;;;;;;4.73;2.23;;;;;20.40;100513.00;;;;2068862;28;20244;-90
2023/02/26 00:06:38;;;;;;;4.53;2.30;;;;;20.40;100521.00;;;;2072118;28;20221;-89
2023/02/26 00:07:38;;;;;;;4.82;2.47;;;;;20.30;100520.00;;;;2072157;28;20221;-89
2023/02/26 00:08:38;;;;;;;3.87;2.10;;;;;20.40;100494.00;;;;2070295;28;20242;-89
2023/02/26 00:09:39;;;;;;;5.23;2.53;;;;;20.40;100528.00;;;;2072408;28;20218;-89
2023/02/26 00:10:39;;;;;;;2.87;2.00;;;;;20.30;100517.00;;;;2072647;28;20263;-89
2023/02/26 00:11:39;;;;;;;2.47;1.87;;;;;20.30;100526.00;;;;2072749;28;20220;-90
2023/02/26 00:12:40;;;;;;;3.37;1.83;;;;;20.30;100530.00;;;;2072727;28;20210;-89
2023/02/26 00:13:41;;;;;;;2.60;2.40;;;;;20.30;100538.00;;;;2072617;28;20210;-89
2023/02/26 00:14:42;;;;;;;3.28;2.15;;;;;20.30;100537.00;;;;2072742;28;20217;-89
2023/02/26 00:15:43;;;;;;;2.60;2.20;;;;;20.30;100538.00;;;;2072625;28;20214;-89
2023/02/26 00:16:46;;;;;;;3.10;1.98;;;;;20.30;100545.00;;;;2071759;28;20221;-90
2023/02/26 00:18:01;;;;;;;3.03;1.85;;;;;20.30;100541.00;;;;2064302;28;20263;-90
2023/02/26 00:19:03;;;;;;;2.75;2.17;;;;;20.30;100433.00;;;;2053144;28;20210;-89
2023/02/26 00:20:04;;;;;;;2.85;2.13;;;;;20.30;100533.00;;;;2063241;28;20214;-89
2023/02/26 00:21:05;;;;;;;2.10;1.88;;;;;20.30;100531.00;;;;2063800;28;20301;-89
2023/02/26 00:22:05;;;;;;;3.33;1.90;;;;;20.30;100544.00;;;;2071668;28;20622;-89
2023/02/26 00:23:06;;;;;;;3.23;1.77;;;;;20.30;100536.00;;;;2072304;28;20206;-89
2023/02/26 00:24:07;;;;;;;3.10;2.10;;;;;20.30;100539.00;;;;2072314;28;20376;-89
2023/02/26 00:25:08;;;;;;;2.30;1.70;;;;;20.30;100545.00;;;;2072356;28;20305;-89
2023/02/26 00:26:08;;;;;;;5.63;2.33;;;;;20.30;100544.00;;;;2071729;28;20517;-89
2023/02/26 00:27:10;;;;;;;3.30;1.70;;;;;20.30;100540.00;;;;2063599;28;20542;-89
2023/02/26 00:28:10;;;;;;;3.00;1.70;;;;;20.20;100513.00;;;;2063382;28;20227;-90
2023/02/26 00:29:11;;;;;;;2.83;1.90;;;;;20.20;100516.00;;;;2055399;28;20207;-88
2023/02/26 00:30:11;;;;;;;4.60;2.10;;;;;20.20;100547.00;;;;2063724;28;20258;-88
2023/02/26 00:31:13;;;;;;;3.60;1.87;;;;;20.20;100546.00;;;;2072326;28;20237;-89
2023/02/26 00:32:16;;;;;;;2.40;1.75;;;;;20.20;100544.00;;;;2070721;28;20653;-89
2023/02/26 00:33:17;;;;;;;2.42;1.85;;;;;20.30;100567.00;;;;2061721;28;20215;-88
2023/02/26 00:34:17;;;;;;;3.67;1.90;;;;;20.20;100554.00;;;;2064061;28;20211;-88
2023/02/26 00:35:18;;;;;;;2.53;1.50;;;;;20.20;100548.00;;;;2064218;28;20686;-88
2023/02/26 00:36:28;;;;;;;2.30;1.53;;;;;20.20;100571.00;;;;2063593;28;20214;-88
2023/02/26 00:37:53;;;;;;;2.10;1.63;;;;;20.20;100556.00;;;;2063718;28;20230;-88
2023/02/26 00:39:26;;;;;;;2.70;1.50;;;;;20.20;100555.00;;;;2063683;28;20225;-88
2023/02/26 00:40:45;;;;;;;2.38;1.55;;;;;20.20;100549.00;;;;2064091;28;20241;-88
2023/02/26 00:41:46;;;;;;;3.30;1.88;;;;;20.20;100548.00;;;;2063197;28;20227;-88
2023/02/26 00:42:46;;;;;;;1.77;1.37;;;;;20.20;100568.00;;;;2063323;28;20738;-88
2023/02/26 00:43:47;;;;;;;2.93;1.53;;;;;20.20;100541.00;;;;2063671;28;20686;-88
2023/02/26 00:44:47;;;;;;;3.00;1.80;;;;;20.20;100541.00;;;;2063996;28;20227;-87
2023/02/26 00:46:37;;;;;;;1.90;1.43;;;;;20.20;100530.00;;;;2064045;28;20273;-88
2023/02/26 00:48:05;;;;;;;1.60;1.10;;;;;20.20;100541.00;;;;2059135;28;20806;-87
2023/02/26 00:49:22;;;;;;;2.17;1.50;;;;;20.20;100549.00;;;;2063076;28;20709;-88
2023/02/26 00:50:24;;;;;;;2.00;1.65;;;;;20.20;100551.00;;;;2063365;28;20694;-88
2023/02/26 00:51:46;;;;;;;3.20;1.90;;;;;20.10;100551.00;;;;2063401;28;20215;-87
2023/02/26 00:53:11;;;;;;;3.78;1.70;;;;;20.10;100555.00;;;;2063006;28;20227;-88
2023/02/26 00:54:20;;;;;;;2.55;1.45;;;;;20.10;100569.00;;;;2063353;28;20578;-87
2023/02/26 00:55:20;;;;;;;2.85;1.63;;;;;20.10;100568.00;;;;2063290;28;20258;-88
2023/02/26 00:56:20;;;;;;;2.20;1.47;;;;;20.10;100570.00;;;;2063499;28;20606;-87
2023/02/26 00:57:21;;;;;;;3.10;1.67;;;;;20.10;100575.00;;;;2063930;28;20590;-88
2023/02/26 00:58:21;;;;;;;2.50;1.60;;;;;20.10;100576.00;;;;2062952;28;20215;-89
2023/02/26 00:59:21;;;;;;;2.30;1.70;;;;;20.10;100577.00;;;;2063727;28;20305;-88
2023/02/26 01:00:22;;;;;;;2.43;1.37;;;;;20.10;100574.00;;;;2064229;28;20211;-88
2023/02/26 01:01:22;;;;;;;3.30;1.80;;;;;20.10;100582.00;;;;2064057;28;20660;-88
2023/02/26 01:02:23;;;;;;;3.60;1.53;;;;;20.10;100578.00;;;;2064476;28;20560;-88
2023/02/26 01:03:23;;;;;;;2.03;1.50;;;;;20.10;100577.00;;;;2055327;28;20645;-88
2023/02/26 01:04:24;;;;;;;2.23;1.37;;;;;20.10;100583.00;;;;2055327;28;20734;-88
2023/02/26 01:05:24;;;;;;;2.53;1.40;;;;;20.10;100578.00;;;;2064374;28;20218;-89
2023/02/26 01:06:27;;;;;;;2.70;1.43;;;;;20.10;100586.00;;;;2063894;28;20222;-88
2023/02/26 01:07:28;;;;;;;2.33;1.50;;;;;20.10;100574.00;;;;2064243;28;20234;-87
2023/02/26 01:08:31;;;;;;;2.70;1.70;;;;;20.10;100575.00;;;;2055316;28;20243;-88
2023/02/26 01:09:33;;;;;;;2.55;1.60;;;;;20.10;100578.00;;;;2056348;28;20231;-89
2023/02/26 01:10:34;;;;;;;2.47;1.55;;;;;20.10;100577.00;;;;2064034;28;20590;-89
2023/02/26 01:11:34;;;;;;;3.27;1.77;;;;;20.10;100582.00;;;;2064355;28;20218;-89
2023/02/26 01:12:35;;;;;;;3.30;1.57;;;;;20.10;100560.00;;;;2063961;28;20306;-88
2023/02/26 01:13:35;;;;;;;1.73;1.33;;;;;20.10;100566.00;;;;2063756;28;20663;-88
2023/02/26 01:14:36;;;;;;;2.07;1.50;;;;;20.00;100573.00;;;;2062499;28;20246;-88
2023/02/26 01:15:36;;;;;;;2.93;1.70;;;;;20.00;100563.00;;;;2063055;28;20808;-88
2023/02/26 01:17:00;;;;;;;2.20;1.50;;;;;20.00;100587.00;;;;2063402;28;20222;-89
2023/02/26 01:18:05;;;;;;;3.10;1.70;;;;;20.00;100589.00;;;;2063672;28;20225;-88
2023/02/26 01:19:16;;;;;;;1.83;1.02;;;;;20.00;100575.00;;;;2063166;28;20211;-88
2023/02/26 01:20:24;;;;;;;3.33;1.38;;;;;20.00;100579.00;;;;2063067;28;20215;-88
2023/02/26 01:21:30;;;;;;;3.28;1.40;;;;;20.00;100563.00;;;;2063588;28;20214;-88
2023/02/26 01:22:34;;;;;;;2.97;1.50;;;;;20.00;100555.00;;;;2063608;28;20218;-87
2023/02/26 01:23:38;;;;;;;1.88;1.40;;;;;20.00;100587.00;;;;2056780;28;20215;-88
2023/02/26 01:24:38;;;;;;;2.78;1.42;;;;;20.00;100580.00;;;;2062921;28;20218;-81
2023/02/26 01:25:39;;;;;;;2.47;1.50;;;;;20.00;100592.00;;;;2063193;28;20223;-84
2023/02/26 01:26:39;;;;;;;2.60;1.53;;;;;20.00;100591.00;;;;2063629;28;20225;-87
2023/02/26 01:27:39;;;;;;;3.23;1.67;;;;;20.00;100589.00;;;;2063556;28;20226;-87
2023/02/26 01:28:40;;;;;;;3.23;1.70;;;;;20.00;100595.00;;;;2064178;28;20222;-87
2023/02/26 01:29:40;;;;;;;2.20;1.40;;;;;20.00;100589.00;;;;2063546;28;20219;-87
2023/02/26 01:30:41;;;;;;;2.43;1.47;;;;;20.00;100593.00;;;;2063886;28;20314;-87
2023/02/26 01:31:44;;;;;;;3.77;1.20;;;;;20.00;100591.00;;;;2063922;28;20690;-88
2023/02/26 01:32:56;;;;;;;2.83;1.27;;;;;20.00;100595.00;;;;2063529;28;20341;-89
2023/02/26 01:34:28;;;;;;;2.30;1.35;;;;;20.00;100594.00;;;;2063570;28;20338;-88
2023/02/26 01:35:44;;;;;;;3.03;1.30;;;;;20.00;100603.00;;;;2063026;28;20222;-88
2023/02/26 01:36:53;;;;;;;2.53;1.45;;;;;20.00;100587.00;;;;2056720;28;20219;-88
2023/02/26 01:38:19;;;;;;;2.45;1.20;;;;;20.00;100599.00;;;;2056324;28;20211;-87
2023/02/26 01:39:33;;;;;;;1.48;1.10;;;;;20.00;100493.00;;;;2063352;28;20214;-88
2023/02/26 01:40:35;;;;;;;1.92;1.20;;;;;20.00;100599.00;;;;2063459;28;20214;-88
2023/02/26 01:41:38;;;;;;;2.10;1.20;;;;;19.90;100597.00;;;;2063436;28;20215;-88
2023/02/26 01:42:39;;;;;;;1.75;1.17;;;;;19.90;100607.00;;;;2055543;28;20254;-88
2023/02/26 01:43:45;;;;;;;2.20;1.10;;;;;19.90;100603.00;;;;2055084;28;20274;-88
2023/02/26 01:45:00;;;;;;;2.13;1.40;;;;;19.90;100610.00;;;;2062830;28;20238;-88
2023/02/26 01:46:19;;;;;;;2.00;1.10;;;;;19.90;100622.00;;;;2064432;28;20682;-88
2023/02/26 01:47:39;;;;;;;2.75;1.40;;;;;19.90;100602.00;;;;2063710;28;20219;-87
2023/02/26 01:48:51;;;;;;;1.90;0.88;;;;;19.90;100601.00;;;;2063245;28;20302;-87
2023/02/26 01:49:51;;;;;;;2.55;1.35;;;;;19.90;100610.00;;;;2062357;28;20230;-87
2023/02/26 01:50:51;;;;;;;1.40;1.00;;;;;19.90;100604.00;;;;2062794;28;20246;-87
2023/02/26 01:51:53;;;;;;;2.17;1.30;;;;;19.90;100529.00;;;;2062921;28;20249;-87
2023/02/26 01:53:15;;;;;;;2.92;1.30;;;;;19.90;100589.00;;;;2063461;28;20211;-87
2023/02/26 01:54:19;;;;;;;2.10;1.17;;;;;19.90;100606.00;;;;2063201;28;20254;-87
2023/02/26 01:55:22;;;;;;;2.33;1.10;;;;;19.90;100619.00;;;;2063357;28;20215;-87
2023/02/26 01:56:23;;;;;;;1.92;1.15;;;;;19.90;100608.00;;;;2063317;28;20675;-87
2023/02/26 01:57:23;;;;;;;1.93;0.97;;;;;19.90;100593.00;;;;2063161;28;20211;-87
2023/02/26 01:58:24;;;;;;;1.27;0.93;;;;;19.80;100609.00;;;;2062873;28;20226;-87
2023/02/26 01:59:24;;;;;;;1.57;1.10;;;;;19.80;100612.00;;;;2062560;28;20210;-87
2023/02/26 02:00:24;;;;;;;1.43;1.03;;;;;19.90;100618.00;;;;2054957;28;20211;-86
2023/02/26 02:01:25;;;;;;;3.23;1.33;;;;;19.90;100617.00;;;;2063125;28;20241;-87
2023/02/26 02:02:25;;;;;;;2.20;1.10;;;;;19.90;100615.00;;;;2063579;28;20299;-87
2023/02/26 02:03:25;;;;;;;1.63;1.13;;;;;19.80;100608.00;;;;2054829;28;20238;-87
2023/02/26 02:04:26;;;;;;;2.40;1.07;;;;;19.80;100605.00;;;;2054726;28;20586;-88
2023/02/26 02:05:28;;;;;;;1.90;1.00;;;;;19.80;100607.00;;;;2065887;28;20206;-87
2023/02/26 02:06:28;;;;;;;1.70;1.10;;;;;19.80;100614.00;;;;2063058;28;20265;-87
2023/02/26 02:07:29;;;;;;;2.90;1.20;;;;;19.80;100609.00;;;;2070862;28;20210;-87
2023/02/26 02:08:32;;;;;;;1.50;0.90;;;;;19.80;100616.00;;;;2071273;28;20218;-87
2023/02/26 02:09:32;;;;;;;1.60;0.98;;;;;19.80;100618.00;;;;2070919;28;20218;-89
2023/02/26 02:10:33;;;;;;;1.57;1.00;;;;;19.80;100617.00;;;;2071181;28;20895;-88
2023/02/26 02:11:34;;;;;;;1.50;0.87;;;;;19.80;100623.00;;;;2062903;28;20226;-88
2023/02/26 02:12:38;;;;;;;2.50;0.87;;;;;19.80;100599.00;;;;2055187;28;20311;-88
2023/02/26 02:14:08;;;;;;;1.70;1.10;;;;;19.80;100625.00;;;;2063570;28;20243;-88
2023/02/26 02:15:20;;;;;;;2.38;1.05;;;;;19.80;100630.00;;;;2070819;28;20220;-88
2023/02/26 02:16:35;;;;;;;1.55;0.90;;;;;19.80;100634.00;;;;2070862;28;20206;-88
2023/02/26 02:17:58;;;;;;;1.55;0.88;;;;;19.80;100631.00;;;;2062771;28;20606;-87
2023/02/26 02:19:26;;;;;;;1.65;0.88;;;;;19.80;100644.00;;;;2066901;28;20756;-88
2023/02/26 02:20:54;;;;;;;1.65;1.15;;;;;19.80;100634.00;;;;2070523;28;20225;-88
2023/02/26 02:22:16;;;;;;;1.75;1.02;;;;;19.80;100635.00;;;;2070397;28;20269;-88
2023/02/26 02:23:19;;;;;;;2.17;1.10;;;;;19.80;100636.00;;;;2071805;28;20214;-88
2023/02/26 02:24:52;;;;;;;1.58;0.90;;;;;19.80;100639.00;;;;2070419;28;20253;-88
2023/02/26 02:26:30;;;;;;;2.47;0.93;;;;;19.80;100635.00;;;;2071067;28;20215;-88
2023/02/26 02:28:02;;;;;;;1.60;1.05;;;;;19.80;100642.00;;;;2071574;28;20210;-88
2023/02/26 02:29:21;;;;;;;2.83;0.85;;;;;19.70;100637.00;;;;2062138;28;20737;-88
2023/02/26 02:30:28;;;;;;;1.92;1.20;;;;;19.70;100645.00;;;;2064085;28;20738;-87
2023/02/26 02:31:32;;;;;;;1.40;0.80;;;;;19.70;100641.00;;;;2070824;28;20788;-88
2023/02/26 02:32:58;;;;;;;1.40;0.80;;;;;19.70;100647.00;;;;2070733;28;20305;-88
2023/02/26 02:34:11;;;;;;;1.60;1.10;;;;;19.70;100653.00;;;;2069142;28;20244;-88
2023/02/26 02:35:18;;;;;;;1.33;0.90;;;;;19.30;100646.00;;;;2059109;28;20777;-88
2023/02/26 02:36:42;;;;;;;1.83;1.25;;;;;19.70;100653.00;;;;2054905;28;20302;-87
2023/02/26 02:37:50;;;;;;;1.40;0.95;;;;;19.70;100652.00;;;;2048226;28;20717;-88
2023/02/26 02:38:53;;;;;;;1.40;1.00;;;;;19.70;100658.00;;;;2049550;28;20235;-88
2023/02/26 02:40:08;;;;;;;1.55;0.98;;;;;19.70;100657.00;;;;2047677;28;20216;-88
2023/02/26 02:41:13;;;;;;;2.22;1.27;;;;;19.70;100651.00;;;;2048476;28;20216;-88
2023/02/26 02:42:13;;;;;;;1.33;0.80;;;;;19.70;100655.00;;;;2047180;28;20698;-87
2023/02/26 02:43:15;;;;;;;1.30;1.10;;;;;19.70;100659.00;;;;2054848;28;20303;-88
2023/02/26 02:44:17;;;;;;;2.20;1.10;;;;;19.70;100648.00;;;;2063068;28;20231;-88
2023/02/26 02:45:22;;;;;;;1.88;0.80;;;;;19.70;100634.00;;;;2062569;28;20709;-88
2023/02/26 02:46:25;;;;;;;2.33;0.80;;;;;19.70;100662.00;;;;2062175;28;20210;-88
2023/02/26 02:47:26;;;;;;;1.70;1.15;;;;;19.70;100663.00;;;;2061806;28;20218;-88
2023/02/26 02:48:30;;;;;;;2.27;0.90;;;;;19.70;100650.00;;;;2054147;28;20707;-86
2023/02/26 02:49:38;;;;;;;1.38;0.75;;;;;19.70;100662.00;;;;2047651;28;20277;-88
2023/02/26 02:50:42;;;;;;;1.52;1.05;;;;;19.60;100655.00;;;;2055315;28;20309;-88
2023/02/26 02:51:54;;;;;;;1.85;0.88;;;;;19.70;100660.00;;;;2062683;28;20215;-88
2023/02/26 02:53:00;;;;;;;1.75;1.30;;;;;19.70;100673.00;;;;2055747;28;20297;-88
2023/02/26 02:54:07;;;;;;;1.45;0.90;;;;;19.70;100651.00;;;;2062776;28;20230;-89
2023/02/26 02:55:12;;;;;;;1.25;0.90;;;;;19.60;100650.00;;;;2061414;28;20671;-88
2023/02/26 02:56:19;;;;;;;2.17;0.85;;;;;19.70;100665.00;;;;2062682;28;20226;-88
2023/02/26 02:57:22;;;;;;;1.50;0.82;;;;;19.60;100676.00;;;;2061449;28;20586;-88
2023/02/26 02:58:25;;;;;;;2.10;1.02;;;;;19.60;100655.00;;;;2054490;28;20223;-88
2023/02/26 02:59:36;;;;;;;1.60;1.02;;;;;19.60;100672.00;;;;2046892;28;20251;-88
2023/02/26 03:00:39;;;;;;;1.50;0.80;;;;;19.60;100671.00;;;;2041096;28;20640;-88
2023/02/26 03:01:39;;;;;;;1.13;0.85;;;;;19.60;100658.00;;;;2055163;28;20227;-88
2023/02/26 03:02:50;;;;;;;3.43;1.00;;;;;19.60;100667.00;;;;2054449;28;20704;-88
2023/02/26 03:04:10;;;;;;;1.15;0.75;;;;;19.60;100673.00;;;;2062587;28;20731;-88
2023/02/26 03:05:11;;;;;;;1.48;0.90;;;;;19.60;100673.00;;;;2063515;28;20289;-88
2023/02/26 03:06:11;;;;;;;2.37;1.10;;;;;19.60;100673.00;;;;2062537;28;20210;-88
2023/02/26 03:07:12;;;;;;;2.13;0.90;;;;;19.60;100663.00;;;;2062852;28;20210;-88
2023/02/26 03:08:14;;;;;;;1.73;0.70;;;;;19.60;100666.00;;;;2062420;28;20949;-88
2023/02/26 03:09:15;;;;;;;1.40;0.90;;;;;19.60;100670.00;;;;2055208;28;20227;-88
2023/02/26 03:10:16;;;;;;;1.27;0.80;;;;;19.60;100674.00;;;;2070748;28;20297;-88
2023/02/26 03:11:16;;;;;;;1.70;0.70;;;;;19.60;100666.00;;;;2062417;28;20694;-88
2023/02/26 03:12:16;;;;;;;2.00;0.77;;;;;19.60;100667.00;;;;2062772;28;20457;-88
2023/02/26 03:13:20;;;;;;;1.57;0.77;;;;;19.60;100673.00;;;;2070804;28;20209;-88
2023/02/26 03:14:21;;;;;;;2.50;0.70;;;;;19.60;100658.00;;;;2071323;28;20226;-87
2023/02/26 03:15:46;;;;;;;1.03;0.70;;;;;19.60;100680.00;;;;2070349;28;20210;-87
2023/02/26 03:17:05;;;;;;;1.23;0.85;;;;;19.60;100679.00;;;;2069857;28;20221;-88
2023/02/26 03:18:13;;;;;;;0.93;0.68;;;;;19.60;100677.00;;;;2065027;28;20207;-88
2023/02/26 03:19:19;;;;;;;1.60;0.80;;;;;19.50;100678.00;;;;2064808;28;20225;-88
2023/02/26 03:20:24;;;;;;;1.80;0.88;;;;;19.60;100694.00;;;;2070717;28;20293;-88
2023/02/26 03:21:29;;;;;;;1.75;1.00;;;;;19.60;100683.00;;;;2070518;28;20213;-87
2023/02/26 03:22:45;;;;;;;1.23;0.80;;;;;19.60;100682.00;;;;2070124;28;20636;-88
2023/02/26 03:23:54;;;;;;;1.70;0.90;;;;;19.50;100680.00;;;;2064157;28;20217;-87
2023/02/26 03:25:03;;;;;;;1.98;0.65;;;;;19.50;100691.00;;;;2070516;28;20238;-86
2023/02/26 03:26:13;;;;;;;1.30;0.90;;;;;19.60;100677.00;;;;2062117;28;20211;-87
2023/02/26 03:27:17;;;;;;;1.88;0.80;;;;;19.60;100698.00;;;;2063864;28;20202;-88
2023/02/26 03:28:40;;;;;;;1.75;0.80;;;;;19.50;100698.00;;;;2062803;28;20331;-87
2023/02/26 03:29:51;;;;;;;1.15;0.70;;;;;19.50;100700.00;;;;2057330;28;20298;-88
2023/02/26 03:31:09;;;;;;;1.00;0.70;;;;;19.50;100704.00;;;;2057195;28;20818;-88
2023/02/26 03:32:16;;;;;;;1.10;0.77;;;;;19.50;100706.00;;;;2070644;28;20280;-87
2023/02/26 03:33:18;;;;;;;1.40;0.82;;;;;19.50;100676.00;;;;2070577;28;20229;-87
2023/02/26 03:34:24;;;;;;;1.40;0.80;;;;;19.50;100707.00;;;;2070545;28;20712;-88
2023/02/26 03:35:29;;;;;;;1.30;0.75;;;;;19.50;100608.00;;;;2069728;28;20612;-88
2023/02/26 03:36:43;;;;;;;1.38;0.60;;;;;19.50;100709.00;;;;2063131;28;20314;-87
2023/02/26 03:37:46;;;;;;;2.20;0.70;;;;;19.50;100706.00;;;;2070602;28;20547;-87
2023/02/26 03:39:08;;;;;;;1.67;0.80;;;;;19.50;100710.00;;;;2070214;28;20246;-88
2023/02/26 03:40:30;;;;;;;1.50;1.00;;;;;19.50;100661.00;;;;2070575;28;20218;-87
2023/02/26 03:41:40;;;;;;;2.28;0.90;;;;;19.50;100716.00;;;;2068594;28;20218;-87
2023/02/26 03:42:47;;;;;;;1.30;0.80;;;;;19.50;100723.00;;;;2070217;28;20240;-87
2023/02/26 03:43:55;;;;;;;1.05;0.80;;;;;19.40;100711.00;;;;2069234;28;20268;-87
2023/02/26 03:45:03;;;;;;;1.17;0.82;;;;;19.40;100709.00;;;;2057004;28;20302;-87
2023/02/26 03:46:06;;;;;;;3.10;1.75;;;;;19.40;100702.00;;;;2063036;28;20644;-87
2023/02/26 03:47:09;;;;;;;1.17;0.75;;;;;19.50;100726.00;;;;2062789;28;20207;-86
2023/02/26 03:48:10;;;;;;;1.40;0.70;;;;;19.50;100722.00;;;;2069881;28;20281;-87
2023/02/26 03:49:13;;;;;;;1.20;0.77;;;;;19.50;100721.00;;;;2054469;28;20215;-87
2023/02/26 03:50:20;;;;;;;1.83;0.98;;;;;19.50;100723.00;;;;2070316;28;20206;-86
2023/02/26 03:51:21;;;;;;;1.95;1.00;;;;;19.50;100694.00;;;;2060932;28;20223;-87
2023/02/26 03:52:22;;;;;;;1.00;0.87;;;;;19.50;100722.00;;;;2061885;28;20218;-87
2023/02/26 03:53:34;;;;;;;2.30;1.00;;;;;19.50;100729.00;;;;2062582;28;20217;-87
2023/02/26 03:54:41;;;;;;;1.48;1.10;;;;;19.50;100723.00;;;;2070808;28;20237;-86
2023/02/26 03:55:54;;;;;;;1.50;0.70;;;;;19.50;100729.00;;;;2071635;28;20221;-87
2023/02/26 03:56:54;;;;;;;1.48;0.90;;;;;19.40;100731.00;;;;2071738;28;20359;-87
2023/02/26 03:57:55;;;;;;;3.33;0.90;;;;;19.40;100730.00;;;;2071687;28;20210;-86
2023/02/26 03:58:55;;;;;;;1.07;0.77;;;;;19.40;100735.00;;;;2071730;28;20693;-88
2023/02/26 03:59:55;;;;;;;2.40;1.00;;;;;19.40;100731.00;;;;2071732;28;20264;-88
2023/02/26 04:01:02;;;;;;;1.27;0.90;;;;;19.40;100740.00;;;;2071609;28;20211;-74
2023/02/26 04:02:10;;;;;;;2.33;0.80;;;;;19.40;100739.00;;;;2071251;28;20211;-81
2023/02/26 04:03:20;;;;;;;1.70;1.10;;;;;19.40;100742.00;;;;2071719;28;20646;-85
2023/02/26 04:04:24;;;;;;;6.53;0.85;;;;;19.50;100739.00;;;;2064805;28;20218;-85
2023/02/26 04:05:31;;;;;;;6.93;1.45;;;;;19.40;100743.00;;;;2068400;28;20222;-84
2023/02/26 04:06:31;;;;;;;5.35;0.90;;;;;19.40;100746.00;;;;2063943;28;20218;-85
2023/02/26 04:07:31;;;;;;;2.93;0.90;;;;;19.40;100741.00;;;;2055479;28;20227;-85
2023/02/26 04:08:32;;;;;;;4.37;0.90;;;;;19.40;100718.00;;;;2047640;28;20579;-85
2023/02/26 04:09:32;;;;;;;3.70;0.77;;;;;19.40;100750.00;;;;2047748;28;20221;-85
2023/02/26 04:10:54;;;;;;;3.17;1.13;;;;;19.40;100737.00;;;;2063761;28;20297;-86
2023/02/26 04:11:55;;;;;;;3.80;0.90;;;;;19.40;100748.00;;;;2062614;28;20222;-85
2023/02/26 04:12:58;;;;;;;3.07;1.47;;;;;19.40;100748.00;;;;2062754;28;20262;-85
2023/02/26 04:13:59;;;;;;;2.03;0.80;;;;;19.40;100752.00;;;;2063084;28;20396;-85
2023/02/26 04:14:59;;;;;;;3.10;0.97;;;;;19.40;100745.00;;;;2062813;28;20222;-85
2023/02/26 04:15:59;;;;;;;1.87;0.80;;;;;19.40;100752.00;;;;2064111;28;20241;-85
2023/02/26 04:17:00;;;;;;;4.67;0.90;;;;;19.40;100757.00;;;;2064102;28;20207;-86
2023/02/26 04:18:00;;;;;;;2.10;0.70;;;;;19.40;100751.00;;;;2063682;28;20211;-86
2023/02/26 04:19:00;;;;;;;2.97;1.00;;;;;19.40;100754.00;;;;2063311;28;20211;-85
2023/02/26 04:20:01;;;;;;;3.70;1.00;;;;;19.30;100755.00;;;;2063506;28;20778;-85
2023/02/26 04:21:01;;;;;;;2.40;1.00;;;;;19.30;100761.00;;;;2064185;28;20622;-85
2023/02/26 04:22:01;;;;;;;2.80;1.20;;;;;19.30;100754.00;;;;2064130;28;20210;-84
2023/02/26 04:23:02;;;;;;;4.10;0.70;;;;;19.30;100763.00;;;;2064179;28;20214;-85
2023/02/26 04:24:02;;;;;;;2.30;0.80;;;;;19.30;100761.00;;;;2063915;28;20655;-85
2023/02/26 04:25:03;;;;;;;3.77;1.27;;;;;19.30;100762.00;;;;2064118;28;20219;-85
2023/02/26 04:26:03;;;;;;;2.07;0.83;;;;;19.30;100765.00;;;;2064443;28;20698;-85
2023/02/26 04:27:04;;;;;;;1.63;0.90;;;;;19.30;100774.00;;;;2064124;28;20214;-85
2023/02/26 04:28:04;;;;;;;2.10;0.90;;;;;19.30;100776.00;;;;2063261;28;20233;-85
2023/02/26 04:29:04;;;;;;;2.50;0.80;;;;;19.30;100768.00;;;;2063437;28;20211;-85
2023/02/26 04:30:05;;;;;;;4.90;1.20;;;;;19.30;100770.00;;;;2064163;28;20203;-85
2023/02/26 04:31:06;;;;;;;1.80;0.80;;;;;19.30;100753.00;;;;2063713;28;20207;-80
2023/02/26 04:32:06;;;;;;;3.10;0.97;;;;;19.30;100770.00;;;;2063584;28;20214;-83
2023/02/26 04:33:06;;;;;;;1.33;0.80;;;;;19.30;100770.00;;;;2063557;28;20238;-84
2023/02/26 04:34:07;;;;;;;1.13;0.83;;;;;19.30;100771.00;;;;2064319;28;20222;-85
2023/02/26 04:35:07;;;;;;;2.90;1.10;;;;;19.30;100746.00;;;;2064184;28;20237;-83
2023/02/26 04:36:08;;;;;;;1.83;0.83;;;;;19.30;100784.00;;;;2064097;28;20210;-85
2023/02/26 04:37:08;;;;;;;1.90;0.80;;;;;19.20;100779.00;;;;2063834;28;20238;-84
2023/02/26 04:38:08;;;;;;;3.83;1.10;;;;;19.30;100778.00;;;;2063802;28;20214;-84
2023/02/26 04:39:09;;;;;;;3.60;0.97;;;;;19.30;100785.00;;;;2064203;28;20221;-85
2023/02/26 04:40:10;;;;;;;1.53;0.77;;;;;19.30;100786.00;;;;2064279;28;20218;-85
2023/02/26 04:41:10;;;;;;;1.63;0.70;;;;;19.30;100788.00;;;;2063332;28;20211;-85
2023/02/26 04:42:11;;;;;;;1.80;0.80;;;;;19.30;100788.00;;;;2063587;28;20474;-85
2023/02/26 04:43:11;;;;;;;2.37;0.90;;;;;19.20;100786.00;;;;2063409;28;20218;-84
2023/02/26 04:44:11;;;;;;;1.77;0.87;;;;;19.20;100788.00;;;;2063973;28;20242;-83
2023/02/26 04:45:12;;;;;;;1.70;0.73;;;;;19.30;100794.00;;;;2063782;28;20211;-84
2023/02/26 04:46:12;;;;;;;1.50;0.73;;;;;19.20;100792.00;;;;2064232;28;20215;-84
2023/02/26 04:47:12;;;;;;;2.20;0.90;;;;;19.20;100794.00;;;;2064145;28;20238;-84
2023/02/26 04:48:13;;;;;;;1.20;0.60;;;;;19.20;100802.00;;;;2063922;28;20211;-84
2023/02/26 04:49:14;;;;;;;1.95;1.13;;;;;19.20;100797.00;;;;2062819;28;20219;-84
2023/02/26 04:50:14;;;;;;;2.37;0.97;;;;;19.20;100803.00;;;;2063471;28;20758;-84
2023/02/26 04:51:14;;;;;;;2.40;0.87;;;;;19.20;100797.00;;;;2063629;28;20354;-84
2023/02/26 04:52:15;;;;;;;2.60;1.17;;;;;19.20;100797.00;;;;2064137;28;20217;-84
2023/02/26 04:53:15;;;;;;;1.47;0.77;;;;;19.20;100777.00;;;;2064197;28;20214;-84
2023/02/26 04:54:15;;;;;;;1.77;0.90;;;;;19.20;100801.00;;;;2063141;28;20211;-84
2023/02/26 04:55:16;;;;;;;1.83;0.93;;;;;19.20;100805.00;;;;2063325;28;20267;-85
2023/02/26 04:56:16;;;;;;;1.40;0.80;;;;;19.20;100805.00;;;;2063194;28;20586;-84
2023/02/26 04:57:16;;;;;;;1.60;0.60;;;;;19.20;100802.00;;;;2063294;28;20262;-85
2023/02/26 04:58:17;;;;;;;1.60;0.90;;;;;19.10;100814.00;;;;2063623;28;20218;-84
2023/02/26 04:59:17;;;;;;;2.43;0.90;;;;;19.20;100717.00;;;;2063661;28;20227;-84
2023/02/26 05:00:19;;;;;;;1.40;0.83;;;;;19.10;100800.00;;;;2063870;28;20214;-84
2023/02/26 05:01:19;;;;;;;1.95;0.95;;;;;19.20;100811.00;;;;2063346;28;20265;-84
2023/02/26 05:02:19;;;;;;;2.13;1.10;;;;;19.20;100810.00;;;;2063959;28;20222;-84
2023/02/26 05:03:20;;;;;;;2.23;0.90;;;;;19.20;100806.00;;;;2063773;28;20633;-84
2023/02/26 05:04:20;;;;;;;2.80;0.80;;;;;19.10;100808.00;;;;2063049;28;20210;-85
2023/02/26 05:05:20;;;;;;;2.90;1.00;;;;;19.10;100809.00;;;;2065187;28;20210;-85
2023/02/26 05:06:20;;;;;;;2.93;1.50;;;;;19.20;100813.00;;;;2072152;28;20217;-85
2023/02/26 05:07:21;;;;;;;2.50;0.80;;;;;19.10;100809.00;;;;2072182;28;20203;-85
2023/02/26 05:08:21;;;;;;;2.10;0.80;;;;;19.20;100809.00;;;;2072007;28;20809;-85
2023/02/26 05:09:21;;;;;;;2.37;0.70;;;;;19.10;100814.00;;;;2072017;28;20690;-84
2023/02/26 05:10:23;;;;;;;2.27;0.90;;;;;19.10;100813.00;;;;2071935;28;20198;-85
2023/02/26 05:11:23;;;;;;;1.60;0.73;;;;;19.10;100825.00;;;;2071713;28;20285;-84
2023/02/26 05:12:23;;;;;;;1.87;0.80;;;;;19.10;100813.00;;;;2071847;28;20218;-84
2023/02/26 05:13:24;;;;;;;3.40;1.37;;;;;19.10;100817.00;;;;2071733;28;20209;-85
2023/02/26 05:14:24;;;;;;;1.50;0.80;;;;;19.10;100820.00;;;;2072029;28;20205;-84
2023/02/26 05:15:24;;;;;;;2.13;0.70;;;;;19.10;100820.00;;;;2072112;28;20217;-84
2023/02/26 05:16:25;;;;;;;2.00;1.00;;;;;19.10;100819.00;;;;2071686;28;20230;-85
2023/02/26 05:17:25;;;;;;;2.10;0.90;;;;;19.10;100830.00;;;;2072002;28;20252;-84
2023/02/26 05:18:25;;;;;;;1.33;0.73;;;;;19.10;100817.00;;;;2071550;28;20209;-85
2023/02/26 05:19:26;;;;;;;1.83;0.80;;;;;19.10;100825.00;;;;2071707;28;20226;-86
2023/02/26 05:20:26;;;;;;;1.10;0.60;;;;;19.10;100818.00;;;;2071575;28;20213;-86
2023/02/26 05:21:26;;;;;;;2.47;1.00;;;;;19.10;100826.00;;;;2071849;28;20218;-85
2023/02/26 05:22:26;;;;;;;1.40;0.83;;;;;19.10;100822.00;;;;2071894;28;20219;-85